Latest Weather Observations for Barimunya

IDW60801

Issued at 11:43 am WST Monday 30 March 2020 (issued every 10 minutes, with the page automatically refreshed every 10 minutes)

About weather observations | Map of weather stations | Latest weather observations for WA | Other Formats
Station Details ID: 505053 Name: BARIMUNYA Lat: -22.67 Lon: 119.16 Height: 629.17 m
Data from the previous 72 hours. | See also: Recent months for locations in Western Australia
Date/Time
WST
Temp
°C
App
Temp
°C
Dew
Point
°C
Rel
Hum
%
Delta-T
°C
Wind Press
QNH
hPa
Press
MSL
hPa
Rain since
9am
mm
Dir  Spd
km/h
Gust
km/h
Spd
kts
Gust
kts
30/11:30am 35.6 33.3 7.6 18 16.1 E 9 20 5 11 1014.8 1009.9 0.0
30/11:00am 34.1 31.6 8.0 20 15.0 ENE 11 19 6 10 1015.4 1010.5 0.0
30/10:30am 34.1 31.2 8.0 20 15.0 ESE 13 20 7 11 1016.0 1011.1 0.0
30/10:00am 33.2 30.2 7.9 21 14.4 ESE 13 20 7 11 1016.3 1011.4 0.0
30/09:30am 31.8 28.9 8.1 23 13.5 SE 13 20 7 11 1016.5 1011.6 0.0
30/09:00am 31.1 28.7 8.8 25 12.8 SE 11 17 6 9 1016.5 1011.6 0.0
30/08:30am 29.8 26.5 8.2 26 12.2 SSE 15 20 8 11 1016.7 1011.8 0.0
30/08:00am 28.8 26.4 8.5 28 11.4 S 11 15 6 8 1016.9 1012.0 0.0
30/07:30am 27.0 25.9 8.4 31 10.4 NNE 4 7 2 4 1016.5 1011.6 0.0
30/07:00am 24.6 24.1 9.3 38 8.6 NE 2 7 1 4 1016.0 1011.1 0.0
30/06:30am 22.8 22.5 8.5 40 7.8 CALM 0 0 0 0 1015.5 1010.7 0.0
30/06:00am 23.8 22.5 7.8 36 8.7 NE 4 7 2 4 1015.1 1010.2 0.0
30/05:30am 23.6 21.1 8.1 37 8.5 SSW 11 13 6 7 1014.6 1009.7 0.0
30/05:00am 23.9 22.9 7.5 35 8.9 SSW 2 7 1 4 1014.6 1009.7 0.0
30/04:30am 25.8 22.7 7.4 31 10.0 SSW 13 13 7 7 1014.0 1009.0 0.0
30/04:00am 26.0 23.0 7.6 31 10.1 SSW 13 13 7 7 1014.1 1009.1 0.0
30/03:30am 26.0 23.4 7.6 31 10.1 SSW 11 13 6 7 1013.8 1008.9 0.0
30/03:00am 26.3 24.0 7.4 30 10.3 SSW 9 11 5 6 1014.0 1009.0 0.0
30/02:30am 26.6 23.5 7.1 29 10.6 SSW 13 15 7 8 1014.0 1009.0 0.0
30/02:00am 27.0 24.2 6.9 28 10.9 S 11 13 6 7 1014.0 1009.0 0.0
30/01:30am 27.8 24.7 7.1 27 11.3 S 13 15 7 8 1014.2 1009.3 0.0
30/01:00am 28.0 25.5 6.7 26 11.6 S 9 13 5 7 1014.2 1009.3 0.0
30/12:30am 28.2 25.4 6.9 26 11.7 S 11 13 6 7 1014.4 1009.5 0.0
30/12:00am 28.8 26.0 6.8 25 12.1 SSW 11 13 6 7 1014.5 1009.6 0.0
 
Date/Time
WST
Temp
°C
App
Temp
°C
Dew
Point
°C
Rel
Hum
%
Delta-T
°C
Wind Press
QNH
hPa
Press
MSL
hPa
Rain since
9am
mm
Dir  Spd
km/h
Gust
km/h
Spd
kts
Gust
kts
29/11:30pm 29.3 26.1 6.7 24 12.4 SSW 13 17 7 9 1014.7 1009.8 0.0
29/11:00pm 30.0 26.7 6.6 23 12.9 S 13 20 7 11 1014.8 1009.9 0.0
29/10:30pm 30.5 27.2 6.4 22 13.2 S 13 20 7 11 1015.0 1010.1 0.0
29/10:00pm 30.9 27.5 6.0 21 13.6 S 13 19 7 10 1015.1 1010.2 0.0
29/09:30pm 31.6 27.4 5.9 20 14.1 SSW 17 26 9 14 1015.1 1010.2 0.0
29/09:00pm 32.0 28.9 5.5 19 14.5 S 11 17 6 9 1015.0 1010.1 0.0
29/08:30pm 32.7 29.2 5.3 18 15.0 S 13 17 7 9 1014.8 1009.9 0.0
29/08:00pm 33.5 29.7 5.9 18 15.3 S 15 20 8 11 1014.5 1009.6 0.0
29/07:30pm 32.8 30.2 6.2 19 14.7 SSE 9 15 5 8 1014.1 1009.1 0.0
29/07:00pm 34.4 31.6 5.0 16 16.1 SE 9 9 5 5 1013.5 1008.6 0.0
29/06:30pm 35.0 32.5 4.5 15 16.6 ESE 7 9 4 5 1013.1 1008.2 0.0
29/06:00pm 35.6 33.3 5.0 15 16.9 S 6 9 3 5 1012.8 1007.9 0.0
29/05:30pm 36.3 33.0 4.6 14 17.4 SSW 11 20 6 11 1012.7 1007.8 0.0
29/05:00pm 37.1 33.7 4.1 13 18.1 SSW 11 15 6 8 1012.6 1007.6 0.0
29/04:30pm 37.3 34.3 4.3 13 18.2 ESE 9 13 5 7 1012.5 1007.5 0.0
29/04:00pm 38.1 35.0 3.8 12 18.8 WNW 9 24 5 13 1012.4 1007.4 0.0
29/03:30pm 37.6 34.1 3.4 12 18.6 W 11 19 6 10 1012.6 1007.6 0.0
29/03:00pm 37.7 34.9 3.4 12 18.7 NE 7 11 4 6 1012.7 1007.8 0.0
29/02:30pm 37.1 33.5 3.0 12 18.4 SE 11 30 6 16 1012.8 1007.9 0.0
29/02:00pm 37.6 33.5 4.5 13 18.3 S 15 20 8 11 1013.0 1008.1 0.0
29/01:30pm 37.5 34.2 4.4 13 18.3 S 11 19 6 10 1013.2 1008.3 0.0
29/01:00pm 36.2 32.5 4.5 14 17.4 SSE 13 24 7 13 1013.7 1008.8 0.0
29/12:30pm 36.4 31.6 4.6 14 17.5 SE 19 28 10 15 1014.1 1009.1 0.0
29/12:00pm 36.2 31.4 4.5 14 17.4 SSE 19 30 10 16 1014.5 1009.6 0.0
29/11:30am 35.7 31.0 5.1 15 16.9 SSE 19 26 10 14 1014.9 1010.0 0.0
29/11:00am 35.2 31.2 6.5 17 16.2 SSE 17 26 9 14 1015.4 1010.5 0.0
29/10:30am 34.4 30.4 6.7 18 15.6 SSE 17 28 9 15 1015.9 1011.0 0.0
29/10:00am 33.8 30.2 8.4 21 14.6 SSE 17 24 9 13 1016.1 1011.2 0.0
29/09:30am 31.9 28.1 7.5 22 13.7 SSE 17 24 9 13 1016.3 1011.4 0.0
29/09:00am 31.1 27.3 7.5 23 13.2 SSE 17 24 9 13 1016.3 1011.4 0.0
29/08:30am 30.0 25.9 7.8 25 12.4 SSE 19 24 10 13 1016.1 1011.2 0.0
29/08:00am 29.2 24.9 7.2 25 12.2 SSE 19 24 10 13 1016.0 1011.1 0.0
29/07:30am 27.6 25.1 8.0 29 10.9 SSW 11 13 6 7 1015.9 1011.0 0.0
29/07:00am 26.8 24.7 8.3 31 10.3 SSW 9 15 5 8 1015.8 1010.9 0.0
29/06:30am 26.3 23.4 8.3 32 10.0 S 13 15 7 8 1015.4 1010.5 0.0
29/06:00am 26.7 23.4 8.2 31 10.3 SSW 15 17 8 9 1015.2 1010.3 0.0
29/05:30am 27.0 23.7 8.0 30 10.5 SSW 15 17 8 9 1015.0 1010.1 0.0
29/05:00am 28.0 24.6 7.8 28 11.2 SSW 15 19 8 10 1014.7 1009.8 0.0
29/04:30am 27.7 25.0 7.5 28 11.1 SW 11 15 6 8 1014.5 1009.6 0.0
29/04:00am 28.0 24.9 7.3 27 11.4 SSW 13 15 7 8 1014.2 1009.3 0.0
29/03:30am 27.9 25.2 7.2 27 11.4 SSW 11 13 6 7 1014.1 1009.1 0.0
29/03:00am 28.3 25.9 7.0 26 11.7 SSW 9 13 5 7 1014.0 1009.0 0.0
29/02:30am 28.7 25.8 6.7 25 12.0 S 11 15 6 8 1014.1 1009.1 0.0
29/02:00am 29.2 26.3 6.6 24 12.4 S 11 13 6 7 1014.3 1009.4 0.0
29/01:30am 29.9 27.0 6.5 23 12.8 S 11 15 6 8 1014.3 1009.4 0.0
29/01:00am 31.1 27.5 6.9 22 13.4 SSW 15 20 8 11 1014.4 1009.5 0.0
29/12:30am 31.6 27.2 6.6 21 13.9 SSW 19 24 10 13 1014.5 1009.6 0.0
29/12:00am 32.0 27.5 6.2 20 14.2 SSW 19 26 10 14 1014.6 1009.7 0.0
 
Date/Time
WST
Temp
°C
App
Temp
°C
Dew
Point
°C
Rel
Hum
%
Delta-T
°C
Wind Press
QNH
hPa
Press
MSL
hPa
Rain since
9am
mm
Dir  Spd
km/h
Gust
km/h
Spd
kts
Gust
kts
28/11:30pm 32.6 28.0 6.7 20 14.5 SSW 20 30 11 16 1014.6 1009.7 0.0
28/11:00pm 32.4 28.6 5.8 19 14.6 SSW 15 26 8 14 1014.7 1009.8 0.0
28/10:30pm 29.9 29.4 7.8 25 12.4 CALM 0 0 0 0 1014.6 1009.7 0.0
28/10:00pm 29.9 29.3 7.2 24 12.6 CALM 0 0 0 0 1014.7 1009.8 0.0
28/09:30pm 30.4 29.3 7.0 23 13.0 NE 2 6 1 3 1014.8 1009.9 0.0
28/09:00pm 31.5 30.2 5.8 20 14.1 NE 2 6 1 3 1014.9 1010.0 0.0
28/08:30pm 32.2 29.1 5.7 19 14.5 NE 11 13 6 7 1014.7 1009.8 0.0
28/08:00pm 32.9 29.4 5.5 18 15.0 NNE 13 15 7 8 1014.6 1009.7 0.0
28/07:30pm 32.8 29.7 5.4 18 15.0 NNE 11 13 6 7 1014.3 1009.4 0.0
28/07:00pm 33.9 30.4 5.4 17 15.7 NNE 13 19 7 10 1013.8 1008.9 0.0
28/06:30pm 34.0 33.3 7.1 19 15.2 CALM 0 4 0 2 1013.3 1008.4 0.0
28/06:00pm 36.1 33.7 4.4 14 17.4 SSE 6 9 3 5 1013.0 1008.1 0.0
28/05:30pm 36.5 34.0 3.7 13 17.8 SSE 6 7 3 4 1012.8 1007.9 0.0
28/05:00pm 37.3 34.5 3.1 12 18.5 E 7 11 4 6 1012.7 1007.8 0.0
28/04:30pm 37.6 34.5 3.4 12 18.6 E 9 13 5 7 1012.6 1007.6 0.0
28/04:00pm 37.2 33.8 4.2 13 18.1 E 11 17 6 9 1012.7 1007.8 0.0
28/03:30pm 37.7 34.2 3.4 12 18.7 SE 11 17 6 9 1012.9 1008.0 0.0
28/03:00pm 37.6 33.5 4.5 13 18.3 ESE 15 26 8 14 1013.1 1008.2 0.0
28/02:30pm 37.5 34.2 4.4 13 18.3 ENE 11 17 6 9 1013.4 1008.5 0.0
28/02:00pm 37.9 34.0 3.6 12 18.7 NNW 13 19 7 10 1013.8 1008.9 0.0
28/01:30pm 38.0 33.8 3.7 12 18.8 NW 15 22 8 12 1014.2 1009.3 0.0
28/01:00pm 37.1 34.5 4.1 13 18.1 NNE 7 15 4 8 1014.7 1009.8 0.0
28/12:30pm 36.7 33.6 3.8 13 17.9 NW 9 20 5 11 1015.1 1010.2 0.0
28/12:00pm 36.9 33.3 2.8 12 18.3 E 11 22 6 12 1015.7 1010.8 0.0
28/11:30am 36.4 32.2 3.6 13 17.8 NNE 15 30 8 16 1016.3 1011.4 0.0
28/11:00am 36.0 32.5 3.3 13 17.6 NNE 11 20 6 11 1016.8 1011.9 0.0
28/10:30am 35.2 30.4 2.6 13 17.3 NE 17 22 9 12 1017.1 1012.3 0.0
28/10:00am 35.0 30.9 2.5 13 17.2 N 13 24 7 13 1017.4 1012.5 0.0
28/09:30am 34.3 30.5 4.0 15 16.3 N 13 20 7 11 1017.6 1012.7 0.0
28/09:00am 33.3 29.7 3.2 15 15.9 N 11 15 6 8 1017.8 1012.9 -
28/08:30am 31.9 30.5 5.4 19 14.4 WNW 2 7 1 4 1017.9 1013.0 -
28/08:00am 30.3 29.9 8.1 25 12.5 CALM 0 0 0 0 1017.9 1013.0 -
28/07:30am 28.2 26.3 9.0 30 10.9 W 9 11 5 6 1017.8 1012.9 -
28/07:00am 25.4 23.0 8.8 35 9.2 WNW 11 15 6 8 1017.6 1012.7 -
28/06:30am 23.8 21.0 8.6 38 8.4 W 13 17 7 9 1017.2 1012.4 -
28/06:00am 22.5 22.4 9.6 44 7.2 CALM 0 0 0 0 1016.5 1011.6 -
28/05:30am 23.3 23.1 9.0 40 7.9 CALM 0 0 0 0 1016.3 1011.4 -
28/05:00am 22.8 22.6 9.2 42 7.5 CALM 0 0 0 0 1016.0 1011.1 -
28/04:30am 23.6 23.3 8.5 38 8.3 CALM 0 0 0 0 1015.8 1010.9 -
28/04:00am 22.9 22.9 9.7 43 7.4 CALM 0 0 0 0 1015.8 1010.9 -
28/03:30am 23.6 23.4 9.2 40 8.0 CALM 0 0 0 0 1015.7 1010.8 -
28/03:00am 24.0 23.7 8.8 38 8.4 CALM 0 0 0 0 1015.8 1010.9 0.0
28/02:30am 24.4 24.1 8.8 37 8.6 CALM 0 0 0 0 1015.9 1011.0 -
28/02:00am 24.8 24.6 9.1 37 8.8 CALM 0 0 0 0 1015.9 1011.0 -
28/01:30am 25.7 25.3 8.2 33 9.7 CALM 0 0 0 0 1016.0 1011.1 -
28/01:00am 25.7 25.4 8.7 34 9.5 CALM 0 0 0 0 1016.1 1011.2 -
28/12:30am 25.8 25.6 9.2 35 9.3 CALM 0 2 0 1 1016.1 1011.2 -
28/12:00am 27.0 26.8 8.9 32 10.2 CALM 0 0 0 0 1016.2 1011.3 -
 
Date/Time
WST
Temp
°C
App
Temp
°C
Dew
Point
°C
Rel
Hum
%
Delta-T
°C
Wind Press
QNH
hPa
Press
MSL
hPa
Rain since
9am
mm
Dir  Spd
km/h
Gust
km/h
Spd
kts
Gust
kts
27/11:30pm 28.4 27.7 7.1 26 11.7 CALM 0 0 0 0 1016.3 1011.4 -
27/11:00pm 28.6 27.6 7.2 26 11.8 E 2 6 1 3 1016.4 1011.5 -
27/10:30pm 28.7 28.2 7.9 27 11.6 CALM 0 0 0 0 1016.5 1011.6 -
27/10:00pm 29.6 28.5 6.9 24 12.5 E 2 6 1 3 1016.6 1011.7 -
27/09:30pm 30.2 28.7 6.8 23 12.9 E 4 7 2 4 1016.8 1011.9 -
27/09:00pm 30.4 28.7 7.6 24 12.8 E 6 9 3 5 1016.8 1011.9 -
27/08:30pm 31.3 29.3 7.1 22 13.5 E 7 9 4 5 1016.8 1011.9 -
27/08:00pm 31.1 29.5 8.2 24 13.0 E 6 7 3 4 1016.5 1011.6 -
27/07:30pm 32.4 30.1 5.8 19 14.6 ESE 7 9 4 5 1016.3 1011.4 -
27/07:00pm 32.6 30.5 6.0 19 14.7 SE 6 7 3 4 1016.0 1011.1 -
27/06:30pm 34.5 32.0 5.0 16 16.2 SE 7 9 4 5 1015.8 1010.9 -
27/06:00pm 35.2 - 5.6 16 16.4 - - - - - 1015.3 1010.4 -
27/05:30pm 35.9 32.9 4.2 14 17.3 SE 9 13 5 7 1015.3 1010.4 -
27/05:00pm 36.4 33.1 4.6 14 17.5 SSE 11 20 6 11 1015.4 1010.5 -
27/04:30pm 36.8 33.8 3.9 13 17.9 S 9 13 5 7 1015.3 1010.4 -
27/04:00pm 36.5 34.0 4.7 14 17.5 ESE 7 15 4 8 1015.3 1010.4 -
27/03:30pm 36.5 34.2 5.7 15 17.2 SE 7 19 4 10 1015.4 1010.5 -
27/03:00pm 36.4 34.1 5.6 15 17.2 E 7 17 4 9 1015.5 1010.7 -
27/02:00pm 36.1 32.6 5.4 15 17.1 NE 13 - 7 - - 1011.3 -

Other formats

Comma delimited format used in spreadsheet applications
http://www.bom.gov.au/fwo/IDW60801/IDW60801.99313.axf

JavaScript Object Notation format (JSON) in row-major order
http://www.bom.gov.au/fwo/IDW60801/IDW60801.99313.json

Data quality

Most of these data are generated automatically and are frequently updated. Quality checks on data are not normally performed. It is possible for incorrect values to appear. Refer to information at About Latest Weather Observations and please check the disclaimer before using these data.